Jackson Hole, Wyoming
Current Conditions -  °F | °C
As of 10:51 AM on Thursday 29 Jan 2015 (Local Time) from KJAC Reporting Station
Broken Clouds Broken Clouds  
Wind Chill: -3°   Ceiling: 2300
Heat Index: -3°   Visibility: 10mi
Dew Point: -6°   Wind: 0mph
Humidity: 80%   Direction: NA
Pressure: 30.46"   Gusts: NA
Location:  43.48°N, 110.761°W
Report Text: KJAC 291751Z 00000KT 10SM BKN023 M03/M06 A3046 RMK RWY 19 IN USE
Loading
Personal Weather Stations






























Interactive Weather Map New forecast layout! Learn more

10-Day Weather Forecast

Advertisements
Track Severe Weather on mobile